Time;durP1;ratioP1;P1;durP2;ratioP2;P2;SDS_P1;SDS_P2;PMS_P1;PMS_P2;Temp;Humidity;BMP_temperature;BMP_pressure;BME280_temperature;BME280_humidity;BME280_pressure;Samples;Min_cycle;Max_cycle;Signal;HPM_P1;HPM_P2
2022/07/19 00:00:21;;;;;;;69.17;7.87;;;24.30;1.00;;;;;;5086140;28;20402;-81
2022/07/19 00:02:47;;;;;;;69.10;8.90;;;24.30;1.00;;;;;;5086301;28;20160;-81
2022/07/19 00:05:14;;;;;;;76.10;8.70;;;24.30;1.00;;;;;;5086043;28;20889;-80
2022/07/19 00:07:40;;;;;;;70.63;9.10;;;24.20;1.00;;;;;;5085499;28;20424;-80
2022/07/19 00:10:08;;;;;;;73.30;8.43;;;24.20;1.00;;;;;;5085961;28;20441;-80
2022/07/19 00:12:34;;;;;;;69.60;9.20;;;24.20;1.00;;;;;;5086554;28;20403;-80
2022/07/19 00:14:59;;;;;;;74.53;7.60;;;24.10;1.00;;;;;;5086739;28;20398;-81
2022/07/19 00:17:25;;;;;;;71.17;7.80;;;24.10;1.00;;;;;;5086899;28;20419;-81
2022/07/19 00:19:51;;;;;;;71.10;7.70;;;24.10;1.00;;;;;;5086524;28;20586;-80
2022/07/19 00:22:16;;;;;;;68.10;7.23;;;24.10;1.00;;;;;;5086310;28;20197;-81
2022/07/19 00:24:42;;;;;;;71.40;8.10;;;24.00;1.00;;;;;;5085674;28;20231;-80
2022/07/19 00:27:08;;;;;;;73.40;7.60;;;24.00;1.00;;;;;;5086199;28;20176;-81
2022/07/19 00:29:33;;;;;;;71.07;8.90;;;24.00;1.00;;;;;;5084696;28;20260;-80
2022/07/19 00:31:59;;;;;;;70.00;7.30;;;24.00;1.00;;;;;;5086210;28;20191;-81
2022/07/19 00:34:25;;;;;;;69.90;7.20;;;23.90;1.00;;;;;;5086397;28;20561;-81
2022/07/19 00:36:50;;;;;;;69.03;7.20;;;23.90;1.00;;;;;;5085332;28;20163;-80
2022/07/19 00:39:16;;;;;;;69.07;8.10;;;23.80;1.00;;;;;;5086394;28;20223;-80
2022/07/19 00:41:43;;;;;;;69.33;8.00;;;23.80;1.00;;;;;;5085861;28;20252;-80
2022/07/19 00:44:10;;;;;;;69.90;8.43;;;23.80;1.00;;;;;;5086448;28;20176;-81
2022/07/19 00:46:36;;;;;;;69.00;6.67;;;23.70;1.00;;;;;;5089796;28;20409;-81
2022/07/19 00:49:03;;;;;;;69.60;8.43;;;23.70;1.00;;;;;;5089535;28;20478;-80
2022/07/19 00:51:32;;;;;;;71.10;7.10;;;23.70;1.00;;;;;;5089748;28;20412;-81
2022/07/19 00:54:00;;;;;;;69.07;7.47;;;23.60;1.00;;;;;;5090081;28;20408;-81
2022/07/19 00:56:27;;;;;;;69.67;6.37;;;23.70;1.00;;;;;;5089211;28;20496;-81
2022/07/19 00:58:54;;;;;;;71.00;8.17;;;23.60;1.00;;;;;;5071865;28;20434;-81
2022/07/19 01:01:19;;;;;;;69.40;7.10;;;23.60;1.00;;;;;;5089439;28;20392;-81
2022/07/19 01:03:47;;;;;;;72.70;7.13;;;23.50;1.00;;;;;;5089171;28;20399;-81
2022/07/19 01:06:12;;;;;;;70.87;8.07;;;23.50;1.00;;;;;;5089350;28;20330;-81
2022/07/19 01:08:38;;;;;;;72.60;7.90;;;23.50;1.00;;;;;;5088798;28;20429;-81
2022/07/19 01:11:05;;;;;;;68.60;7.60;;;23.50;1.00;;;;;;5089354;28;20194;-81
2022/07/19 01:13:31;;;;;;;70.50;7.17;;;23.50;1.00;;;;;;5089036;28;20162;-81
2022/07/19 01:15:57;;;;;;;68.57;6.43;;;23.50;1.00;;;;;;5089389;28;20466;-81
2022/07/19 01:18:23;;;;;;;69.37;7.70;;;23.50;1.00;;;;;;5168551;22;20471;-81
2022/07/19 01:20:50;;;;;;;69.20;7.20;;;23.40;1.00;;;;;;5089097;28;20395;-80
2022/07/19 01:23:19;;;;;;;70.40;7.00;;;23.40;1.00;;;;;;5089143;28;20659;-81
2022/07/19 01:25:45;;;;;;;70.07;6.77;;;23.40;1.00;;;;;;5089219;28;20400;-81
2022/07/19 01:28:11;;;;;;;69.57;7.20;;;23.30;1.00;;;;;;5089270;28;20503;-81
2022/07/19 01:30:37;;;;;;;67.80;6.70;;;23.30;1.00;;;;;;5089323;28;20190;-81
2022/07/19 01:33:03;;;;;;;69.80;6.67;;;23.30;1.00;;;;;;5088640;28;20166;-81
2022/07/19 01:35:29;;;;;;;71.20;7.27;;;23.30;1.00;;;;;;5088605;28;20157;-81
2022/07/19 01:37:56;;;;;;;69.70;7.43;;;23.20;1.00;;;;;;5088051;28;20414;-81
2022/07/19 01:40:22;;;;;;;69.40;6.43;;;23.20;1.00;;;;;;5088631;28;20399;-81
2022/07/19 01:42:48;;;;;;;67.67;6.63;;;23.10;1.00;;;;;;5089061;28;20542;-81
2022/07/19 01:45:15;;;;;;;70.77;7.30;;;23.10;1.00;;;;;;5088443;28;20414;-80
2022/07/19 01:47:42;;;;;;;70.10;7.07;;;23.10;1.00;;;;;;5088676;28;20427;-81
2022/07/19 01:50:09;;;;;;;68.87;6.57;;;23.00;1.00;;;;;;5088244;28;20447;-81
2022/07/19 01:52:35;;;;;;;69.80;6.50;;;23.00;1.00;;;;;;5088491;28;20403;-81
2022/07/19 01:55:01;;;;;;;69.37;6.30;;;23.00;1.00;;;;;;5088237;28;20425;-81
2022/07/19 01:57:28;;;;;;;67.57;5.83;;;23.00;1.00;;;;;;5087762;28;20180;-80
2022/07/19 01:59:54;;;;;;;69.17;6.00;;;23.00;1.00;;;;;;5088218;28;20165;-80
2022/07/19 02:02:20;;;;;;;69.73;6.80;;;22.90;1.00;;;;;;5087937;28;20398;-80
2022/07/19 02:04:46;;;;;;;69.73;5.90;;;23.00;1.00;;;;;;5087736;28;20433;-81
2022/07/19 02:07:12;;;;;;;72.13;6.50;;;22.90;1.00;;;;;;5088290;28;20169;-80
2022/07/19 02:09:37;;;;;;;69.37;5.67;;;22.90;1.00;;;;;;5087940;28;20184;-81
2022/07/19 02:12:03;;;;;;;67.97;6.53;;;22.90;1.00;;;;;;5087163;28;20164;-80
2022/07/19 02:14:29;;;;;;;69.37;6.33;;;22.90;1.00;;;;;;5088017;28;20171;-80
2022/07/19 02:16:54;;;;;;;68.13;5.80;;;22.80;1.00;;;;;;5087580;28;20172;-80
2022/07/19 02:19:21;;;;;;;67.87;5.70;;;22.70;1.00;;;;;;5088063;28;20183;-81
2022/07/19 02:21:47;;;;;;;68.20;5.73;;;22.60;1.00;;;;;;5084760;28;20176;-81
2022/07/19 02:24:13;;;;;;;69.83;5.27;;;22.50;1.00;;;;;;5087880;28;20796;-81
2022/07/19 02:26:39;;;;;;;70.50;5.83;;;22.30;1.00;;;;;;5087831;28;20466;-81
2022/07/19 02:29:05;;;;;;;68.07;6.20;;;22.50;1.00;;;;;;5087736;28;20488;-81
2022/07/19 02:31:31;;;;;;;67.50;5.40;;;22.50;1.00;;;;;;5087432;28;20173;-81
2022/07/19 02:33:57;;;;;;;67.90;5.90;;;22.50;1.00;;;;;;5087667;28;20403;-81
2022/07/19 02:36:23;;;;;;;67.80;5.70;;;22.60;1.00;;;;;;5087474;28;20747;-81
2022/07/19 02:38:48;;;;;;;67.87;5.30;;;22.60;1.00;;;;;;5086002;28;20249;-81
2022/07/19 02:41:14;;;;;;;67.80;6.10;;;22.60;1.00;;;;;;5153918;22;20670;-83
2022/07/19 02:43:40;;;;;;;68.50;6.00;;;22.60;1.00;;;;;;5062626;28;20250;-83
2022/07/19 02:46:06;;;;;;;68.80;5.93;;;22.60;1.00;;;;;;5080540;28;20435;-83
2022/07/19 02:48:32;;;;;;;69.33;4.90;;;22.60;1.00;;;;;;5062075;28;20623;-83
2022/07/19 02:50:58;;;;;;;68.40;5.63;;;22.60;1.00;;;;;;5081136;28;20244;-83
2022/07/19 02:53:23;;;;;;;67.27;5.03;;;22.50;1.00;;;;;;5081517;28;20164;-83
2022/07/19 02:55:49;;;;;;;68.23;5.73;;;22.40;1.00;;;;;;5080809;28;20161;-83
2022/07/19 02:58:15;;;;;;;70.87;6.10;;;22.40;1.00;;;;;;5079928;28;20267;-83
2022/07/19 03:00:41;;;;;;;69.87;6.10;;;22.40;1.00;;;;;;5080066;28;20168;-83
2022/07/19 03:05:51;;;;;;;74.03;6.23;;;22.30;1.00;;;;;;5080928;28;20394;-83
2022/07/19 03:08:17;;;;;;;70.70;5.70;;;22.30;1.00;;;;;;5080092;28;20419;-84
2022/07/19 03:10:43;;;;;;;66.80;5.20;;;22.10;1.00;;;;;;5062702;28;20195;-84
2022/07/19 03:13:09;;;;;;;69.10;5.77;;;22.10;1.00;;;;;;5062359;28;20468;-84
2022/07/19 03:15:36;;;;;;;67.37;5.40;;;22.10;1.00;;;;;;5062371;28;20406;-84
2022/07/19 03:18:02;;;;;;;67.70;5.37;;;22.10;1.00;;;;;;5079404;28;20951;-83
2022/07/19 03:20:28;;;;;;;69.80;5.10;;;22.10;1.00;;;;;;5079089;28;20398;-84
2022/07/19 03:22:54;;;;;;;67.50;5.77;;;22.20;1.00;;;;;;5079125;28;20918;-83
2022/07/19 03:25:19;;;;;;;69.00;5.80;;;22.30;1.00;;;;;;5078932;28;20255;-83
2022/07/19 03:27:45;;;;;;;67.27;6.00;;;22.20;1.00;;;;;;5078444;28;20192;-83
2022/07/19 03:30:11;;;;;;;70.57;5.87;;;22.10;1.00;;;;;;5078507;28;20183;-83
2022/07/19 03:32:36;;;;;;;71.63;5.70;;;22.00;1.00;;;;;;5060535;28;20175;-83
2022/07/19 03:35:03;;;;;;;68.17;6.00;;;22.00;1.70;;;;;;5079036;28;20231;-83
2022/07/19 03:37:28;;;;;;;69.40;5.80;;;22.00;1.80;;;;;;5078306;28;20191;-83
2022/07/19 03:39:54;;;;;;;70.00;5.30;;;21.90;1.70;;;;;;5078463;28;20414;-84
2022/07/19 03:42:20;;;;;;;67.47;5.07;;;21.90;2.00;;;;;;5060257;28;20156;-83
2022/07/19 03:44:45;;;;;;;68.47;5.30;;;21.80;1.90;;;;;;5059886;28;20225;-83
2022/07/19 03:47:11;;;;;;;71.03;5.50;;;21.80;2.00;;;;;;5078032;28;20167;-83
2022/07/19 03:49:37;;;;;;;69.47;5.50;;;21.90;2.60;;;;;;5078314;28;20219;-83
2022/07/19 03:52:02;;;;;;;68.17;4.80;;;22.00;1.50;;;;;;5078535;28;20168;-83
2022/07/19 03:54:28;;;;;;;69.40;5.40;;;22.00;1.10;;;;;;5060550;28;20175;-83
2022/07/19 03:56:55;;;;;;;70.03;5.17;;;22.00;1.00;;;;;;5078032;28;20409;-82
2022/07/19 03:59:22;;;;;;;69.37;5.40;;;22.00;1.00;;;;;;5044066;28;20176;-83
2022/07/19 04:01:49;;;;;;;68.93;5.77;;;22.00;1.00;;;;;;5078482;28;20398;-83
2022/07/19 04:04:17;;;;;;;68.30;5.50;;;21.90;1.00;;;;;;5088177;28;20428;-84
2022/07/19 04:06:43;;;;;;;66.53;4.33;;;21.70;1.00;;;;;;5080969;28;20437;-84
2022/07/19 04:09:10;;;;;;;67.47;5.50;;;21.70;1.00;;;;;;5080210;28;20492;-84
2022/07/19 04:11:35;;;;;;;67.03;5.33;;;21.70;1.60;;;;;;5061814;28;20403;-86
2022/07/19 04:14:01;;;;;;;67.50;5.13;;;21.70;1.00;;;;;;5080109;28;20405;-83
2022/07/19 04:16:27;;;;;;;67.73;4.97;;;21.60;1.50;;;;;;5061070;28;20486;-83
2022/07/19 04:18:53;;;;;;;66.83;5.13;;;21.50;1.00;;;;;;5079653;28;20448;-83
2022/07/19 04:21:18;;;;;;;67.27;4.63;;;21.50;3.30;;;;;;5084099;28;20167;-83
2022/07/19 04:23:44;;;;;;;67.50;4.50;;;21.40;2.00;;;;;;5083867;28;20229;-83
2022/07/19 04:26:10;;;;;;;67.80;4.30;;;21.40;1.30;;;;;;5066205;28;20168;-83
2022/07/19 04:28:35;;;;;;;66.57;4.63;;;21.30;2.20;;;;;;5065866;28;20199;-83
2022/07/19 04:31:01;;;;;;;79.47;7.03;;;21.20;2.20;;;;;;5083844;28;20290;-83
2022/07/19 04:33:27;;;;;;;70.50;5.40;;;21.30;2.30;;;;;;5083284;28;20163;-83
2022/07/19 04:35:53;;;;;;;69.80;5.00;;;21.30;1.20;;;;;;5065301;28;20420;-84
2022/07/19 04:38:20;;;;;;;68.70;4.90;;;21.30;1.00;;;;;;5082947;28;20183;-83
2022/07/19 04:40:45;;;;;;;71.47;5.83;;;21.30;1.00;;;;;;5083009;28;20504;-83
2022/07/19 04:43:12;;;;;;;70.97;5.03;;;21.50;1.00;;;;;;5083345;28;20406;-83
2022/07/19 04:45:41;;;;;;;69.33;4.30;;;21.30;1.00;;;;;;5065136;28;20179;-83
2022/07/19 04:48:08;;;;;;;67.93;4.70;;;21.50;1.00;;;;;;5082867;28;20992;-83
2022/07/19 04:50:34;;;;;;;68.77;4.97;;;21.50;1.00;;;;;;5082179;28;20441;-83
2022/07/19 04:53:00;;;;;;;68.77;4.80;;;21.80;1.00;;;;;;5082885;28;20168;-83
2022/07/19 04:55:26;;;;;;;66.60;4.20;;;22.00;1.00;;;;;;5064587;28;20187;-83
2022/07/19 04:57:52;;;;;;;67.90;5.27;;;22.20;1.00;;;;;;5082016;28;20216;-83
2022/07/19 05:00:18;;;;;;;70.50;5.40;;;22.40;1.00;;;;;;5064073;28;20418;-83
2022/07/19 05:02:44;;;;;;;75.00;5.00;;;22.70;1.00;;;;;;5081820;28;20175;-82
2022/07/19 05:05:10;;;;;;;68.63;4.00;;;22.80;1.00;;;;;;5081735;28;20410;-83
2022/07/19 05:07:36;;;;;;;72.40;4.90;;;23.00;1.00;;;;;;5063184;28;20466;-83
2022/07/19 05:10:06;;;;;;;66.97;4.97;;;23.10;1.00;;;;;;5063275;28;20450;-83
2022/07/19 05:12:32;;;;;;;70.27;4.53;;;22.90;1.00;;;;;;5081634;28;20403;-85
2022/07/19 05:14:58;;;;;;;71.07;5.67;;;22.80;1.00;;;;;;5081318;28;20403;-85
2022/07/19 05:17:24;;;;;;;70.17;5.10;;;22.70;1.00;;;;;;5081500;28;20937;-86
2022/07/19 05:19:50;;;;;;;70.90;5.40;;;22.70;1.00;;;;;;5082298;28;20176;-84
2022/07/19 05:22:16;;;;;;;68.70;5.43;;;22.60;1.00;;;;;;5081812;28;20410;-84
2022/07/19 05:24:41;;;;;;;68.17;5.30;;;22.70;1.00;;;;;;5063665;28;20666;-84
2022/07/19 05:27:07;;;;;;;67.80;5.27;;;22.80;1.00;;;;;;5063602;28;20173;-84
2022/07/19 05:29:33;;;;;;;71.67;5.57;;;22.70;1.00;;;;;;5081630;28;20197;-84
2022/07/19 05:31:58;;;;;;;72.67;5.10;;;22.60;1.00;;;;;;5081593;28;20164;-84
2022/07/19 05:34:24;;;;;;;69.50;4.80;;;22.70;1.00;;;;;;5081528;28;20219;-84
2022/07/19 05:36:50;;;;;;;67.77;4.63;;;22.70;1.00;;;;;;5070984;28;20169;-84
2022/07/19 05:39:16;;;;;;;68.50;4.80;;;22.70;1.00;;;;;;5083392;28;20181;-84
2022/07/19 05:41:42;;;;;;;68.70;5.37;;;22.80;1.00;;;;;;5081368;28;20267;-84
2022/07/19 05:44:08;;;;;;;71.33;6.90;;;22.80;1.00;;;;;;5063223;28;20406;-84
2022/07/19 05:46:37;;;;;;;70.40;5.23;;;22.70;1.00;;;;;;5063011;28;20414;-84
2022/07/19 05:49:02;;;;;;;68.73;5.27;;;22.80;1.00;;;;;;5080655;28;20188;-84
2022/07/19 05:51:28;;;;;;;68.73;4.97;;;22.80;1.00;;;;;;5063703;28;20477;-84
2022/07/19 05:53:54;;;;;;;67.00;4.83;;;22.90;1.00;;;;;;5063651;28;20160;-84
2022/07/19 05:56:19;;;;;;;68.83;5.43;;;22.90;1.00;;;;;;5081457;28;20620;-82
2022/07/19 05:58:47;;;;;;;69.57;4.60;;;22.80;1.00;;;;;;5064221;28;20235;-82
2022/07/19 06:01:18;;;;;;;67.07;4.50;;;22.90;1.00;;;;;;5063876;28;20165;-83
2022/07/19 06:03:57;;;;;;;69.27;5.70;;;23.00;1.00;;;;;;5063937;28;20407;-82
2022/07/19 06:06:25;;;;;;;68.57;5.20;;;23.00;1.00;;;;;;5082762;28;20380;-82
2022/07/19 06:08:50;;;;;;;68.83;4.90;;;23.00;1.00;;;;;;5081860;28;20426;-82
2022/07/19 06:11:17;;;;;;;71.90;5.03;;;23.10;1.00;;;;;;5064377;28;20402;-83
2022/07/19 06:13:44;;;;;;;67.90;4.97;;;23.20;1.00;;;;;;5082110;28;20674;-83
2022/07/19 06:16:11;;;;;;;68.57;4.90;;;23.10;1.00;;;;;;5063669;28;20441;-82
2022/07/19 06:18:37;;;;;;;67.30;3.80;;;23.10;1.00;;;;;;5064465;28;20430;-82
2022/07/19 06:21:08;;;;;;;79.77;4.00;;;23.10;1.00;;;;;;5081337;28;20757;-82
2022/07/19 06:23:35;;;;;;;69.10;3.83;;;23.10;1.00;;;;;;5063233;28;20857;-81
2022/07/19 06:26:01;;;;;;;68.87;3.80;;;23.10;1.00;;;;;;5080542;28;20458;-82
2022/07/19 06:28:27;;;;;;;69.17;4.60;;;23.20;1.00;;;;;;5062917;28;20457;-83
2022/07/19 06:30:53;;;;;;;68.10;3.77;;;23.20;1.00;;;;;;5080031;28;20442;-82
2022/07/19 06:33:20;;;;;;;70.67;3.47;;;23.30;1.00;;;;;;5080228;28;20401;-82
2022/07/19 06:35:46;;;;;;;68.50;4.40;;;23.40;1.00;;;;;;5061733;28;20486;-82
2022/07/19 06:38:12;;;;;;;68.53;4.87;;;23.50;1.00;;;;;;5080363;28;20858;-82
2022/07/19 06:40:38;;;;;;;69.37;4.50;;;23.60;1.00;;;;;;5081273;28;20461;-82
2022/07/19 06:43:03;;;;;;;68.60;4.40;;;23.60;1.00;;;;;;5061783;28;20400;-82
2022/07/19 06:45:29;;;;;;;68.60;4.17;;;23.70;1.00;;;;;;5078477;28;20174;-82
2022/07/19 06:47:55;;;;;;;68.87;3.60;;;23.80;1.00;;;;;;5060430;28;20559;-82
2022/07/19 06:50:21;;;;;;;71.47;4.23;;;23.80;1.00;;;;;;5079524;28;20458;-85
2022/07/19 06:52:48;;;;;;;68.57;3.17;;;23.90;1.00;;;;;;5060821;28;20581;-81
2022/07/19 06:55:13;;;;;;;72.77;4.93;;;24.00;1.00;;;;;;5080267;28;20406;-82
2022/07/19 06:57:40;;;;;;;66.87;3.40;;;24.10;1.00;;;;;;5061923;28;20425;-82
2022/07/19 07:00:09;;;;;;;69.30;3.57;;;24.20;1.00;;;;;;5061746;28;20172;-82
2022/07/19 07:02:36;;;;;;;69.07;3.40;;;24.30;1.00;;;;;;5080123;28;20402;-81
2022/07/19 07:05:02;;;;;;;66.80;3.53;;;24.40;1.00;;;;;;5061289;28;20428;-82
2022/07/19 07:07:28;;;;;;;71.90;3.53;;;24.50;1.00;;;;;;5062130;28;20439;-85
2022/07/19 07:09:54;;;;;;;74.23;4.50;;;24.50;1.00;;;;;;5080793;28;20438;-83
2022/07/19 07:12:20;;;;;;;67.10;3.50;;;24.60;1.00;;;;;;5081374;28;20409;-82
2022/07/19 07:14:46;;;;;;;67.87;3.43;;;24.70;1.00;;;;;;5081643;28;20400;-81
2022/07/19 07:17:11;;;;;;;67.47;4.17;;;24.80;1.00;;;;;;5080286;28;20159;-83
2022/07/19 07:19:37;;;;;;;68.93;3.40;;;24.90;1.00;;;;;;5062560;28;20215;-82
2022/07/19 07:22:03;;;;;;;67.67;3.53;;;24.90;1.00;;;;;;5061569;28;20642;-82
2022/07/19 07:24:29;;;;;;;67.93;3.80;;;25.00;1.00;;;;;;5079518;28;20531;-84
2022/07/19 07:26:55;;;;;;;67.70;3.50;;;25.10;1.00;;;;;;5078809;28;20575;-84
2022/07/19 07:29:20;;;;;;;67.57;3.50;;;25.20;1.00;;;;;;5079783;28;20451;-84
2022/07/19 07:31:46;;;;;;;67.17;3.97;;;25.30;1.00;;;;;;5079095;28;20901;-84
2022/07/19 07:34:12;;;;;;;70.93;3.60;;;25.40;1.00;;;;;;5079849;28;20159;-85
2022/07/19 07:36:38;;;;;;;67.77;3.40;;;25.50;1.00;;;;;;5061493;28;20589;-84
2022/07/19 07:39:04;;;;;;;66.90;3.70;;;25.50;1.00;;;;;;5078744;28;20182;-84
2022/07/19 07:41:29;;;;;;;67.70;3.50;;;25.60;1.00;;;;;;5060740;28;20188;-84
2022/07/19 07:43:55;;;;;;;66.60;3.93;;;25.80;1.00;;;;;;5060747;28;20409;-84
2022/07/19 07:46:21;;;;;;;68.20;4.90;;;25.80;1.00;;;;;;5079110;28;20175;-85
2022/07/19 07:48:50;;;;;;;74.50;4.77;;;25.90;1.00;;;;;;5078811;28;20191;-84
2022/07/19 07:51:15;;;;;;;71.80;4.80;;;26.00;1.00;;;;;;5060564;28;20412;-84
2022/07/19 07:53:41;;;;;;;71.90;6.37;;;26.10;1.00;;;;;;5078403;28;20473;-85
2022/07/19 07:56:07;;;;;;;70.37;5.43;;;26.20;1.00;;;;;;5082723;28;20164;-83
2022/07/19 07:58:33;;;;;;;74.50;6.20;;;26.30;1.00;;;;;;5081910;28;20259;-84
2022/07/19 08:00:58;;;;;;;68.33;5.50;;;26.40;1.00;;;;;;5082568;28;20430;-84
2022/07/19 08:03:24;;;;;;;71.30;9.80;;;26.60;1.00;;;;;;5081515;28;20505;-84
2022/07/19 08:05:50;;;;;;;71.20;8.17;;;26.60;1.00;;;;;;5082877;28;20187;-84
2022/07/19 08:08:16;;;;;;;69.07;9.80;;;26.70;1.00;;;;;;5082155;28;20663;-84
2022/07/19 08:10:45;;;;;;;69.00;9.00;;;26.80;1.00;;;;;;5064739;28;20198;-84
2022/07/19 08:13:11;;;;;;;70.00;10.57;;;26.90;1.00;;;;;;5082820;28;20398;-84
2022/07/19 08:15:37;;;;;;;69.83;8.97;;;26.90;1.00;;;;;;5064845;28;20459;-84
2022/07/19 08:18:04;;;;;;;69.97;9.97;;;27.00;1.00;;;;;;5064088;28;20188;-84
2022/07/19 08:20:30;;;;;;;71.47;8.83;;;27.10;1.00;;;;;;5081646;28;20394;-84
2022/07/19 08:22:56;;;;;;;71.30;7.60;;;27.20;1.00;;;;;;5082098;28;20466;-84
2022/07/19 08:25:22;;;;;;;69.67;7.20;;;27.40;1.00;;;;;;5082087;28;20438;-84
2022/07/19 08:27:48;;;;;;;69.60;8.03;;;27.50;1.00;;;;;;5064008;28;20441;-84
2022/07/19 08:30:14;;;;;;;71.20;7.53;;;27.60;1.00;;;;;;5063181;28;20228;-84
2022/07/19 08:32:40;;;;;;;67.97;4.67;;;27.70;1.00;;;;;;5063548;28;20171;-84
2022/07/19 08:35:07;;;;;;;74.60;4.63;;;27.80;1.00;;;;;;5081930;28;20497;-84
2022/07/19 08:37:33;;;;;;;68.40;3.57;;;28.10;1.00;;;;;;5082073;28;20418;-83
2022/07/19 08:39:59;;;;;;;68.27;3.30;;;28.00;1.00;;;;;;5135733;22;20452;-80
2022/07/19 08:42:25;;;;;;;70.17;3.10;;;28.10;1.00;;;;;;5085127;28;20412;-80
2022/07/19 08:44:53;;;;;;;66.20;3.37;;;28.10;1.00;;;;;;5084862;28;20162;-80
2022/07/19 08:47:20;;;;;;;68.80;3.17;;;28.20;1.00;;;;;;5085882;28;20418;-80
2022/07/19 08:49:47;;;;;;;68.30;3.30;;;28.40;1.00;;;;;;5087569;28;20441;-82
2022/07/19 08:52:13;;;;;;;66.50;3.20;;;28.60;1.00;;;;;;5084181;28;20406;-80
2022/07/19 08:54:39;;;;;;;66.50;3.40;;;28.60;1.00;;;;;;5087375;28;21007;-80
2022/07/19 08:59:50;;;;;;;69.57;3.93;;;28.90;1.00;;;;;;5085386;28;20394;-82
2022/07/19 09:02:16;;;;;;;71.30;4.10;;;29.00;1.00;;;;;;5083894;28;20417;-80
2022/07/19 09:04:43;;;;;;;66.30;3.20;;;29.10;1.00;;;;;;5081250;28;20406;-82
2022/07/19 09:07:09;;;;;;;67.10;3.13;;;29.30;1.00;;;;;;5081568;28;20494;-82
2022/07/19 09:09:36;;;;;;;66.33;2.83;;;29.40;1.00;;;;;;5083577;28;20972;-82
2022/07/19 09:12:05;;;;;;;67.07;3.37;;;29.60;1.00;;;;;;5084242;28;20184;-82
2022/07/19 09:14:34;;;;;;;69.40;3.60;;;29.80;1.00;;;;;;5082364;28;20410;-82
2022/07/19 09:17:16;;;;;;;75.43;4.83;;;29.80;1.00;;;;;;5081040;28;20430;-82
2022/07/19 09:19:44;;;;;;;69.87;4.10;;;29.90;1.00;;;;;;5081232;28;20402;-82
2022/07/19 09:22:13;;;;;;;67.80;4.07;;;30.10;1.00;;;;;;5081397;28;20411;-82
2022/07/19 09:24:41;;;;;;;69.50;4.53;;;30.20;1.00;;;;;;5081858;28;20410;-82
2022/07/19 09:27:16;;;;;;;67.90;5.17;;;30.20;1.00;;;;;;5080571;28;20880;-81
2022/07/19 09:29:44;;;;;;;67.00;3.07;;;30.40;1.00;;;;;;5083362;28;20436;-82
2022/07/19 09:32:18;;;;;;;67.23;3.30;;;30.50;1.00;;;;;;5081219;28;20402;-82
2022/07/19 09:34:55;;;;;;;69.47;3.23;;;30.70;1.00;;;;;;5085180;28;20479;-81
2022/07/19 09:37:25;;;;;;;67.57;2.80;;;30.80;1.00;;;;;;5084420;28;20449;-81
2022/07/19 09:39:52;;;;;;;70.57;3.30;;;30.80;1.00;;;;;;5080366;28;20411;-81
2022/07/19 09:42:40;;;;;;;71.50;2.80;;;31.20;1.00;;;;;;5083824;28;20459;-81
2022/07/19 09:45:10;;;;;;;68.30;3.20;;;31.40;1.00;;;;;;5084128;28;20389;-81
2022/07/19 09:47:38;;;;;;;68.77;3.23;;;31.60;1.00;;;;;;5082401;28;20433;-81
2022/07/19 09:50:08;;;;;;;67.20;2.73;;;31.70;1.00;;;;;;5082801;28;20963;-81
2022/07/19 09:52:35;;;;;;;67.80;3.13;;;31.80;1.00;;;;;;5081889;28;20785;-81
2022/07/19 09:55:05;;;;;;;69.67;3.00;;;32.10;1.00;;;;;;5083770;28;20425;-81
2022/07/19 09:57:42;;;;;;;67.00;2.53;;;32.10;1.00;;;;;;5083394;28;20418;-81
2022/07/19 10:00:09;;;;;;;68.70;2.60;;;32.10;1.00;;;;;;5082273;28;20394;-82
2022/07/19 10:02:41;;;;;;;67.47;3.03;;;32.30;1.00;;;;;;5082327;28;20450;-81
2022/07/19 10:05:09;;;;;;;69.67;3.33;;;32.30;1.00;;;;;;5083553;28;20418;-82
2022/07/19 10:07:35;;;;;;;69.07;2.90;;;32.60;1.00;;;;;;5081956;28;20442;-82
2022/07/19 10:10:05;;;;;;;66.90;2.47;;;32.60;1.00;;;;;;5082848;28;20781;-82
2022/07/19 10:12:32;;;;;;;67.67;2.83;;;32.70;1.00;;;;;;5081346;28;20152;-82
2022/07/19 10:14:58;;;;;;;69.90;3.40;;;32.90;1.00;;;;;;5084353;28;20411;-82
2022/07/19 10:17:35;;;;;;;73.80;4.20;;;33.10;1.00;;;;;;5081606;28;20465;-82
2022/07/19 10:20:03;;;;;;;68.20;3.83;;;33.10;1.00;;;;;;5081546;28;20749;-82
2022/07/19 10:22:29;;;;;;;70.43;3.27;;;33.30;1.00;;;;;;5082472;28;20420;-82
2022/07/19 10:24:58;;;;;;;72.23;2.90;;;33.60;1.00;;;;;;5079253;28;20920;-82
2022/07/19 10:27:24;;;;;;;68.07;4.60;;;33.70;1.00;;;;;;5079149;28;20426;-81
2022/07/19 10:30:09;;;;;;;68.60;4.33;;;33.80;1.00;;;;;;5078939;28;20797;-82
2022/07/19 10:32:36;;;;;;;69.80;6.13;;;33.90;1.00;;;;;;5080655;28;20183;-82
2022/07/19 10:35:20;;;;;;;68.80;4.30;;;34.00;1.00;;;;;;5081524;28;20398;-83
2022/07/19 10:37:49;;;;;;;69.00;5.30;;;34.10;1.00;;;;;;5080021;28;20453;-81
2022/07/19 10:40:56;;;;;;;69.57;6.77;;;34.20;1.00;;;;;;5080198;28;20430;-82
2022/07/19 10:43:24;;;;;;;71.10;3.50;;;34.30;1.00;;;;;;5080033;28;20513;-82
2022/07/19 10:45:56;;;;;;;69.17;2.63;;;34.50;1.00;;;;;;5081286;28;20437;-82
2022/07/19 10:48:40;;;;;;;68.30;2.37;;;34.30;1.00;;;;;;5079442;28;21015;-82
2022/07/19 10:51:29;;;;;;;69.87;2.43;;;34.60;1.00;;;;;;5079451;28;20435;-83
2022/07/19 10:54:00;;;;;;;68.60;2.60;;;34.70;1.00;;;;;;5079962;28;20790;-82
2022/07/19 10:56:40;;;;;;;73.13;3.37;;;34.90;1.00;;;;;;5078596;28;20464;-82
2022/07/19 10:59:13;;;;;;;70.07;2.87;;;34.80;1.00;;;;;;5079741;28;20469;-82
2022/07/19 11:01:55;;;;;;;69.60;2.87;;;34.80;1.00;;;;;;5080616;28;20759;-81
2022/07/19 11:04:22;;;;;;;68.17;2.50;;;35.00;1.00;;;;;;5082369;28;20433;-82
2022/07/19 11:06:48;;;;;;;69.60;2.93;;;35.20;1.00;;;;;;5081947;28;20417;-82
2022/07/19 11:09:14;;;;;;;68.70;2.70;;;35.10;1.00;;;;;;5080509;28;20454;-82
2022/07/19 11:11:40;;;;;;;68.60;2.60;;;35.20;1.00;;;;;;5081040;28;20171;-81
2022/07/19 11:14:05;;;;;;;67.17;2.83;;;35.30;1.00;;;;;;5080594;28;20172;-82
2022/07/19 11:16:31;;;;;;;67.57;2.77;;;35.10;1.00;;;;;;5078880;28;20298;-81
2022/07/19 11:19:08;;;;;;;67.97;2.70;;;35.20;1.00;;;;;;5079885;28;20835;-80
2022/07/19 11:21:36;;;;;;;71.80;2.80;;;35.50;1.00;;;;;;5081284;28;20408;-82
2022/07/19 11:24:04;;;;;;;68.07;2.60;;;35.60;1.00;;;;;;5078980;28;20415;-82
2022/07/19 11:26:40;;;;;;;67.93;2.57;;;35.60;1.00;;;;;;5082313;28;20387;-81
2022/07/19 11:29:06;;;;;;;79.00;3.20;;;35.80;1.00;;;;;;5080831;28;20450;-81
2022/07/19 11:31:32;;;;;;;68.20;2.70;;;36.10;1.00;;;;;;5080322;28;20411;-81
2022/07/19 11:34:00;;;;;;;69.10;3.10;;;36.10;1.00;;;;;;5079314;28;20777;-80
2022/07/19 11:36:27;;;;;;;69.27;3.10;;;36.10;1.00;;;;;;5080642;28;20405;-80
2022/07/19 11:39:00;;;;;;;68.40;3.37;;;36.20;1.00;;;;;;5083845;28;20433;-81
2022/07/19 11:41:29;;;;;;;67.57;2.83;;;36.40;1.00;;;;;;5084372;28;20865;-82
2022/07/19 11:43:57;;;;;;;68.00;2.37;;;36.40;1.00;;;;;;5081628;28;20901;-81
2022/07/19 11:46:25;;;;;;;69.60;3.20;;;36.10;1.00;;;;;;5081587;28;20406;-81
2022/07/19 11:49:00;;;;;;;69.43;2.80;;;36.10;1.00;;;;;;5080938;28;20414;-81
2022/07/19 11:51:26;;;;;;;70.10;3.00;;;36.20;1.00;;;;;;5079649;28;20399;-80
2022/07/19 11:53:54;;;;;;;67.50;2.30;;;36.30;1.00;;;;;;5078166;28;20413;-81
2022/07/19 11:56:32;;;;;;;68.97;2.40;;;36.40;1.00;;;;;;5079543;28;20410;-80
2022/07/19 11:59:04;;;;;;;68.57;2.73;;;36.10;1.00;;;;;;5080201;28;20414;-81
2022/07/19 12:01:35;;;;;;;68.30;3.03;;;36.20;1.00;;;;;;5078273;28;20399;-82
2022/07/19 12:04:04;;;;;;;66.40;2.60;;;36.50;1.00;;;;;;5079951;28;20416;-81
2022/07/19 12:06:39;;;;;;;71.03;2.90;;;36.70;1.00;;;;;;5078915;28;20407;-81
2022/07/19 12:09:10;;;;;;;67.57;3.07;;;36.70;1.00;;;;;;5078829;28;20421;-81
2022/07/19 12:11:42;;;;;;;70.87;3.40;;;36.80;1.00;;;;;;5080156;28;20398;-81
2022/07/19 12:14:27;;;;;;;68.20;2.87;;;36.90;1.00;;;;;;5080199;28;20406;-81
2022/07/19 12:17:11;;;;;;;70.63;3.43;;;37.10;1.00;;;;;;5081177;28;20383;-82
2022/07/19 12:19:38;;;;;;;67.90;3.20;;;36.80;1.00;;;;;;5079522;28;20410;-81
2022/07/19 12:22:03;;;;;;;76.33;3.00;;;36.60;1.00;;;;;;5083053;28;20414;-82
2022/07/19 12:24:33;;;;;;;67.97;3.20;;;36.60;1.00;;;;;;5082687;28;20898;-82
2022/07/19 12:27:06;;;;;;;68.50;2.60;;;36.70;1.00;;;;;;5082595;28;20176;-81
2022/07/19 12:29:37;;;;;;;66.97;2.30;;;37.00;1.00;;;;;;5080384;28;20430;-82
2022/07/19 12:32:05;;;;;;;68.53;2.70;;;37.00;1.00;;;;;;5078918;28;20402;-81
2022/07/19 12:34:46;;;;;;;70.27;3.10;;;37.10;1.00;;;;;;5078773;28;20394;-81
2022/07/19 12:37:40;;;;;;;69.30;3.03;;;37.00;1.00;;;;;;5079600;28;20874;-81
2022/07/19 12:40:14;;;;;;;70.27;6.10;;;37.20;1.00;;;;;;5076841;28;20458;-82
2022/07/19 12:42:46;;;;;;;68.10;2.60;;;37.00;1.00;;;;;;5082290;28;20459;-82
2022/07/19 12:45:23;;;;;;;68.83;3.13;;;37.00;1.00;;;;;;5084059;28;20406;-81
2022/07/19 12:47:50;;;;;;;67.20;2.50;;;37.10;1.00;;;;;;5081648;28;20445;-82
2022/07/19 12:50:23;;;;;;;68.07;3.00;;;37.20;1.00;;;;;;5081697;28;20804;-81
2022/07/19 12:52:50;;;;;;;69.17;2.77;;;37.00;1.00;;;;;;5079923;28;20441;-82
2022/07/19 12:55:16;;;;;;;68.03;2.17;;;37.10;1.00;;;;;;5080639;28;20394;-82